sensor_id;sensor_type;location;lat;lon;timestamp;temperature;humidity
70475;DHT22;57944;48.722;9.316;2023-06-22T09:28:39;46.50;54.00
70475;DHT22;57944;48.722;9.316;2023-06-22T09:31:10;46.90;53.90
70475;DHT22;57944;48.722;9.316;2023-06-22T09:33:40;46.70;53.60
70475;DHT22;57944;48.722;9.316;2023-06-22T09:36:14;46.30;53.40
70475;DHT22;57944;48.722;9.316;2023-06-22T09:38:44;46.70;53.20
70475;DHT22;57944;48.722;9.316;2023-06-22T09:41:14;46.40;53.10
70475;DHT22;57944;48.722;9.316;2023-06-22T09:43:45;45.80;53.40
70475;DHT22;57944;48.722;9.316;2023-06-22T09:46:15;45.60;54.00
70475;DHT22;57944;48.722;9.316;2023-06-22T09:48:48;44.30;54.10
70475;DHT22;57944;48.722;9.316;2023-06-22T09:51:21;43.00;56.40
70475;DHT22;57944;48.722;9.316;2023-06-22T09:53:52;42.80;56.50
70475;DHT22;57944;48.722;9.316;2023-06-22T09:56:23;43.30;56.70
70475;DHT22;57944;48.722;9.316;2023-06-22T09:58:56;44.00;56.20
70475;DHT22;57944;48.722;9.316;2023-06-22T10:01:43;45.40;54.90
70475;DHT22;57944;48.722;9.316;2023-06-22T10:04:13;46.80;53.40
70475;DHT22;57944;48.722;9.316;2023-06-22T10:06:46;47.40;52.00
70475;DHT22;57944;48.722;9.316;2023-06-22T10:09:17;45.90;52.20
70475;DHT22;57944;48.722;9.316;2023-06-22T10:11:48;45.10;53.60
70475;DHT22;57944;48.722;9.316;2023-06-22T10:14:18;44.50;53.70
70475;DHT22;57944;48.722;9.316;2023-06-22T10:16:49;43.20;54.90
70475;DHT22;57944;48.722;9.316;2023-06-22T10:19:19;42.80;55.70
70475;DHT22;57944;48.722;9.316;2023-06-22T10:21:52;42.20;56.40
70475;DHT22;57944;48.722;9.316;2023-06-22T10:24:22;41.50;57.30
70475;DHT22;57944;48.722;9.316;2023-06-22T10:26:53;40.20;59.00
70475;DHT22;57944;48.722;9.316;2023-06-22T10:29:23;40.00;60.00
70475;DHT22;57944;48.722;9.316;2023-06-22T10:31:53;40.60;60.40
70475;DHT22;57944;48.722;9.316;2023-06-22T10:34:23;41.30;58.40
70475;DHT22;57944;48.722;9.316;2023-06-22T10:36:56;40.60;59.40
70475;DHT22;57944;48.722;9.316;2023-06-22T10:39:26;39.40;60.60
70475;DHT22;57944;48.722;9.316;2023-06-22T10:41:57;39.20;61.30
70475;DHT22;57944;48.722;9.316;2023-06-22T10:44:27;40.00;61.00
70475;DHT22;57944;48.722;9.316;2023-06-22T10:46:57;40.80;59.40
70475;DHT22;57944;48.722;9.316;2023-06-22T10:49:27;40.20;59.90
70475;DHT22;57944;48.722;9.316;2023-06-22T10:52:00;39.00;61.40
70475;DHT22;57944;48.722;9.316;2023-06-22T10:54:32;39.00;62.00
70475;DHT22;57944;48.722;9.316;2023-06-22T10:57:03;38.70;61.00
70475;DHT22;57944;48.722;9.316;2023-06-22T10:59:34;38.00;63.00
70475;DHT22;57944;48.722;9.316;2023-06-22T11:02:05;37.60;64.00
70475;DHT22;57944;48.722;9.316;2023-06-22T11:04:35;37.60;63.50
70475;DHT22;57944;48.722;9.316;2023-06-22T11:07:09;37.80;63.10
70475;DHT22;57944;48.722;9.316;2023-06-22T11:09:39;38.50;64.00
70475;DHT22;57944;48.722;9.316;2023-06-22T11:12:10;38.80;63.90
70475;DHT22;57944;48.722;9.316;2023-06-22T11:14:40;39.10;64.10
70475;DHT22;57944;48.722;9.316;2023-06-22T11:17:10;38.80;63.30
70475;DHT22;57944;48.722;9.316;2023-06-22T11:19:40;38.90;62.80
70475;DHT22;57944;48.722;9.316;2023-06-22T11:22:13;39.10;62.40
70475;DHT22;57944;48.722;9.316;2023-06-22T11:24:44;39.60;60.80
70475;DHT22;57944;48.722;9.316;2023-06-22T11:27:14;39.50;60.90
70475;DHT22;57944;48.722;9.316;2023-06-22T11:29:45;40.00;61.90
70475;DHT22;57944;48.722;9.316;2023-06-22T11:32:16;39.80;59.60
70475;DHT22;57944;48.722;9.316;2023-06-22T11:34:47;40.10;60.50
70475;DHT22;57944;48.722;9.316;2023-06-22T11:37:20;39.90;60.10
70475;DHT22;57944;48.722;9.316;2023-06-22T11:39:50;39.80;60.10
70475;DHT22;57944;48.722;9.316;2023-06-22T11:42:32;39.40;59.70
70475;DHT22;57944;48.722;9.316;2023-06-22T11:45:05;40.00;59.00
70475;DHT22;57944;48.722;9.316;2023-06-22T11:47:36;39.80;58.20
70475;DHT22;57944;48.722;9.316;2023-06-22T11:50:08;39.70;58.40
70475;DHT22;57944;48.722;9.316;2023-06-22T11:52:41;39.70;58.40
70475;DHT22;57944;48.722;9.316;2023-06-22T11:55:11;39.30;59.80
70475;DHT22;57944;48.722;9.316;2023-06-22T11:57:53;38.40;61.20
70475;DHT22;57944;48.722;9.316;2023-06-22T12:00:27;37.40;62.30
70475;DHT22;57944;48.722;9.316;2023-06-22T12:02:57;37.10;63.90
70475;DHT22;57944;48.722;9.316;2023-06-22T12:05:27;37.00;64.50
70475;DHT22;57944;48.722;9.316;2023-06-22T12:08:01;37.10;64.90
70475;DHT22;57944;48.722;9.316;2023-06-22T12:10:31;37.70;64.50
70475;DHT22;57944;48.722;9.316;2023-06-22T12:13:01;38.80;63.70
70475;DHT22;57944;48.722;9.316;2023-06-22T12:15:31;39.70;60.90
70475;DHT22;57944;48.722;9.316;2023-06-22T12:18:02;40.20;59.70
70475;DHT22;57944;48.722;9.316;2023-06-22T12:20:32;40.30;59.10
70475;DHT22;57944;48.722;9.316;2023-06-22T12:23:05;40.70;59.40
70475;DHT22;57944;48.722;9.316;2023-06-22T12:25:35;41.50;58.60
70475;DHT22;57944;48.722;9.316;2023-06-22T12:28:06;41.00;57.80
70475;DHT22;57944;48.722;9.316;2023-06-22T12:30:36;40.30;57.30
70475;DHT22;57944;48.722;9.316;2023-06-22T12:33:06;39.90;58.20
70475;DHT22;57944;48.722;9.316;2023-06-22T12:35:36;39.60;58.80
70475;DHT22;57944;48.722;9.316;2023-06-22T12:38:09;39.30;58.70
70475;DHT22;57944;48.722;9.316;2023-06-22T12:40:39;38.90;58.50
70475;DHT22;57944;48.722;9.316;2023-06-22T12:43:10;38.30;59.40
70475;DHT22;57944;48.722;9.316;2023-06-22T12:45:40;37.70;60.10
70475;DHT22;57944;48.722;9.316;2023-06-22T12:48:10;37.40;61.50
70475;DHT22;57944;48.722;9.316;2023-06-22T12:50:41;37.10;62.00
70475;DHT22;57944;48.722;9.316;2023-06-22T12:53:13;36.60;64.40
70475;DHT22;57944;48.722;9.316;2023-06-22T12:55:44;36.00;66.40
70475;DHT22;57944;48.722;9.316;2023-06-22T12:58:14;35.90;67.50
70475;DHT22;57944;48.722;9.316;2023-06-22T13:00:44;36.00;67.20
70475;DHT22;57944;48.722;9.316;2023-06-22T13:03:15;36.20;67.30
70475;DHT22;57944;48.722;9.316;2023-06-22T13:05:46;36.20;67.40
70475;DHT22;57944;48.722;9.316;2023-06-22T13:08:18;36.10;67.80
70475;DHT22;57944;48.722;9.316;2023-06-22T13:11:01;35.90;68.10
70475;DHT22;57944;48.722;9.316;2023-06-22T13:13:31;36.00;68.50
70475;DHT22;57944;48.722;9.316;2023-06-22T13:16:02;36.30;67.20
70475;DHT22;57944;48.722;9.316;2023-06-22T13:18:32;36.50;67.00
70475;DHT22;57944;48.722;9.316;2023-06-22T13:21:03;36.50;67.00
70475;DHT22;57944;48.722;9.316;2023-06-22T13:23:36;36.50;66.60
70475;DHT22;57944;48.722;9.316;2023-06-22T13:26:07;36.70;65.40
70475;DHT22;57944;48.722;9.316;2023-06-22T13:28:38;37.10;65.20
70475;DHT22;57944;48.722;9.316;2023-06-22T13:31:08;37.90;65.40
70475;DHT22;57944;48.722;9.316;2023-06-22T13:33:38;38.20;63.70
70475;DHT22;57944;48.722;9.316;2023-06-22T13:36:23;38.20;62.70
70475;DHT22;57944;48.722;9.316;2023-06-22T13:39:09;37.70;63.90
70475;DHT22;57944;48.722;9.316;2023-06-22T13:41:40;37.50;63.40
70475;DHT22;57944;48.722;9.316;2023-06-22T13:44:24;37.40;62.70
70475;DHT22;57944;48.722;9.316;2023-06-22T13:47:09;37.40;62.20
70475;DHT22;57944;48.722;9.316;2023-06-22T13:49:54;37.30;62.00
70475;DHT22;57944;48.722;9.316;2023-06-22T13:52:24;37.70;63.00
70475;DHT22;57944;48.722;9.316;2023-06-22T13:54:57;38.10;62.30
70475;DHT22;57944;48.722;9.316;2023-06-22T13:57:28;38.40;61.50
70475;DHT22;57944;48.722;9.316;2023-06-22T13:59:58;38.90;60.50
70475;DHT22;57944;48.722;9.316;2023-06-22T14:02:37;39.30;59.40
70475;DHT22;57944;48.722;9.316;2023-06-22T14:05:08;39.70;59.70
70475;DHT22;57944;48.722;9.316;2023-06-22T14:07:39;40.10;58.30
70475;DHT22;57944;48.722;9.316;2023-06-22T14:10:12;40.80;57.40
70475;DHT22;57944;48.722;9.316;2023-06-22T14:12:43;41.40;57.50
70475;DHT22;57944;48.722;9.316;2023-06-22T14:15:13;41.60;56.20
70475;DHT22;57944;48.722;9.316;2023-06-22T14:17:44;41.30;56.60
70475;DHT22;57944;48.722;9.316;2023-06-22T14:20:14;41.00;55.20
70475;DHT22;57944;48.722;9.316;2023-06-22T14:22:45;40.70;55.00
70475;DHT22;57944;48.722;9.316;2023-06-22T14:25:17;40.40;55.70
70475;DHT22;57944;48.722;9.316;2023-06-22T14:27:48;40.00;56.70
70475;DHT22;57944;48.722;9.316;2023-06-22T14:30:18;39.70;56.80
70475;DHT22;57944;48.722;9.316;2023-06-22T14:32:48;39.40;56.70
70475;DHT22;57944;48.722;9.316;2023-06-22T14:35:18;39.40;57.20
70475;DHT22;57944;48.722;9.316;2023-06-22T14:37:49;39.40;57.30
70475;DHT22;57944;48.722;9.316;2023-06-22T14:40:22;39.80;57.90
70475;DHT22;57944;48.722;9.316;2023-06-22T14:42:53;40.40;57.10
70475;DHT22;57944;48.722;9.316;2023-06-22T14:45:23;40.80;56.40
70475;DHT22;57944;48.722;9.316;2023-06-22T14:47:54;40.70;56.50
70475;DHT22;57944;48.722;9.316;2023-06-22T14:50:24;40.40;56.70
70475;DHT22;57944;48.722;9.316;2023-06-22T14:52:55;40.20;57.10
70475;DHT22;57944;48.722;9.316;2023-06-22T14:55:27;39.80;57.10
70475;DHT22;57944;48.722;9.316;2023-06-22T14:57:58;39.30;57.20
70475;DHT22;57944;48.722;9.316;2023-06-22T15:00:28;39.50;57.60
70475;DHT22;57944;48.722;9.316;2023-06-22T15:02:59;39.50;56.20
70475;DHT22;57944;48.722;9.316;2023-06-22T15:05:29;38.50;54.00
70475;DHT22;57944;48.722;9.316;2023-06-22T15:08:00;37.70;54.70
70475;DHT22;57944;48.722;9.316;2023-06-22T15:10:33;37.40;54.30
70475;DHT22;57944;48.722;9.316;2023-06-22T15:13:03;36.80;52.70
70475;DHT22;57944;48.722;9.316;2023-06-22T15:15:33;36.40;53.80
70475;DHT22;57944;48.722;9.316;2023-06-22T15:18:04;36.00;53.50
70475;DHT22;57944;48.722;9.316;2023-06-22T15:20:34;36.10;54.10
70475;DHT22;57944;48.722;9.316;2023-06-22T15:23:06;36.60;53.60
70475;DHT22;57944;48.722;9.316;2023-06-22T15:25:40;36.80;52.70
70475;DHT22;57944;48.722;9.316;2023-06-22T15:28:11;37.10;52.70
70475;DHT22;57944;48.722;9.316;2023-06-22T15:30:42;37.40;51.50
70475;DHT22;57944;48.722;9.316;2023-06-22T15:33:15;37.60;51.80
70475;DHT22;57944;48.722;9.316;2023-06-22T15:35:46;37.20;51.50
70475;DHT22;57944;48.722;9.316;2023-06-22T15:38:16;36.40;52.00
70475;DHT22;57944;48.722;9.316;2023-06-22T15:40:49;35.70;52.80
70475;DHT22;57944;48.722;9.316;2023-06-22T15:43:19;35.00;52.80
70475;DHT22;57944;48.722;9.316;2023-06-22T15:45:50;34.60;54.50
70475;DHT22;57944;48.722;9.316;2023-06-22T15:48:21;34.50;55.20
70475;DHT22;57944;48.722;9.316;2023-06-22T15:50:51;34.40;55.00
70475;DHT22;57944;48.722;9.316;2023-06-22T15:53:22;34.40;54.40
70475;DHT22;57944;48.722;9.316;2023-06-22T15:55:55;34.50;54.60
70475;DHT22;57944;48.722;9.316;2023-06-22T15:58:25;35.10;54.30
70475;DHT22;57944;48.722;9.316;2023-06-22T16:00:56;35.50;54.40
70475;DHT22;57944;48.722;9.316;2023-06-22T16:03:26;35.90;54.10
70475;DHT22;57944;48.722;9.316;2023-06-22T16:05:57;35.70;54.10
70475;DHT22;57944;48.722;9.316;2023-06-22T16:08:27;35.40;54.30
70475;DHT22;57944;48.722;9.316;2023-06-22T16:11:00;35.10;54.10
70475;DHT22;57944;48.722;9.316;2023-06-22T16:13:31;34.50;54.20
70475;DHT22;57944;48.722;9.316;2023-06-22T16:16:01;34.20;54.90
70475;DHT22;57944;48.722;9.316;2023-06-22T16:18:31;33.90;55.30
70475;DHT22;57944;48.722;9.316;2023-06-22T16:21:02;33.50;56.30
70475;DHT22;57944;48.722;9.316;2023-06-22T16:23:33;33.20;57.60
70475;DHT22;57944;48.722;9.316;2023-06-22T16:26:05;33.00;57.70
70475;DHT22;57944;48.722;9.316;2023-06-22T16:28:36;32.90;57.50
70475;DHT22;57944;48.722;9.316;2023-06-22T16:31:06;32.80;58.00
70475;DHT22;57944;48.722;9.316;2023-06-22T16:33:36;32.60;57.10
70475;DHT22;57944;48.722;9.316;2023-06-22T16:36:10;32.10;57.30
70475;DHT22;57944;48.722;9.316;2023-06-22T16:38:41;32.00;57.90
70475;DHT22;57944;48.722;9.316;2023-06-22T16:41:14;32.00;58.10
70475;DHT22;57944;48.722;9.316;2023-06-22T16:43:44;31.80;58.10
70475;DHT22;57944;48.722;9.316;2023-06-22T16:46:14;31.70;58.50
70475;DHT22;57944;48.722;9.316;2023-06-22T16:48:50;31.50;58.70
70475;DHT22;57944;48.722;9.316;2023-06-22T16:51:21;31.50;58.90
70475;DHT22;57944;48.722;9.316;2023-06-22T16:53:53;31.30;59.30
70475;DHT22;57944;48.722;9.316;2023-06-22T16:56:28;31.30;59.60
70475;DHT22;57944;48.722;9.316;2023-06-22T16:58:58;31.30;59.90
70475;DHT22;57944;48.722;9.316;2023-06-22T17:01:34;31.30;59.60
70475;DHT22;57944;48.722;9.316;2023-06-22T17:04:07;31.30;59.70
70475;DHT22;57944;48.722;9.316;2023-06-22T17:06:42;31.30;59.50
70475;DHT22;57944;48.722;9.316;2023-06-22T17:09:19;31.30;59.40
70475;DHT22;57944;48.722;9.316;2023-06-22T17:11:55;31.30;59.60
70475;DHT22;57944;48.722;9.316;2023-06-22T17:14:25;31.40;59.60
70475;DHT22;57944;48.722;9.316;2023-06-22T17:16:55;31.30;59.90
70475;DHT22;57944;48.722;9.316;2023-06-22T17:19:27;31.00;60.50
70475;DHT22;57944;48.722;9.316;2023-06-22T17:21:57;30.90;61.80
70475;DHT22;57944;48.722;9.316;2023-06-22T17:24:28;30.90;61.40
70475;DHT22;57944;48.722;9.316;2023-06-22T17:27:01;31.00;61.50
70475;DHT22;57944;48.722;9.316;2023-06-22T17:29:32;31.00;61.70
70475;DHT22;57944;48.722;9.316;2023-06-22T17:32:03;30.70;62.50
70475;DHT22;57944;48.722;9.316;2023-06-22T17:34:34;30.50;63.10
70475;DHT22;57944;48.722;9.316;2023-06-22T17:37:05;30.30;63.80
70475;DHT22;57944;48.722;9.316;2023-06-22T17:39:36;30.10;64.10
70475;DHT22;57944;48.722;9.316;2023-06-22T17:42:09;29.80;65.00
70475;DHT22;57944;48.722;9.316;2023-06-22T17:44:39;29.60;63.90
70475;DHT22;57944;48.722;9.316;2023-06-22T17:47:09;29.40;64.60
70475;DHT22;57944;48.722;9.316;2023-06-22T17:49:40;29.20;64.30
70475;DHT22;57944;48.722;9.316;2023-06-22T17:52:16;28.90;64.00
70475;DHT22;57944;48.722;9.316;2023-06-22T17:54:50;28.80;63.90
70475;DHT22;57944;48.722;9.316;2023-06-22T17:57:40;28.70;64.00
70475;DHT22;57944;48.722;9.316;2023-06-22T18:00:14;28.50;64.20
70475;DHT22;57944;48.722;9.316;2023-06-22T18:02:45;28.20;64.40
70475;DHT22;57944;48.722;9.316;2023-06-22T18:05:15;28.10;64.90
70475;DHT22;57944;48.722;9.316;2023-06-22T18:07:46;28.00;65.60
70475;DHT22;57944;48.722;9.316;2023-06-22T18:10:21;27.80;65.70
70475;DHT22;57944;48.722;9.316;2023-06-22T18:12:55;27.70;66.40
70475;DHT22;57944;48.722;9.316;2023-06-22T18:15:27;27.50;67.10
70475;DHT22;57944;48.722;9.316;2023-06-22T18:17:58;27.40;67.90
70475;DHT22;57944;48.722;9.316;2023-06-22T18:20:30;27.30;68.20
70475;DHT22;57944;48.722;9.316;2023-06-22T18:23:03;27.20;68.60
